sensor_id;sensor_type;location;lat;lon;timestamp;P1;durP1;ratioP1;P2;durP2;ratioP2
21101;SDS011;10709;49.006;12.100;2024-01-27T00:02:08;7.37;;;2.03;;
21101;SDS011;10709;49.006;12.100;2024-01-27T00:04:35;5.63;;;1.93;;
21101;SDS011;10709;49.006;12.100;2024-01-27T00:07:03;6.57;;;1.80;;
21101;SDS011;10709;49.006;12.100;2024-01-27T00:09:31;8.33;;;2.17;;
21101;SDS011;10709;49.006;12.100;2024-01-27T00:11:57;8.10;;;2.10;;
21101;SDS011;10709;49.006;12.100;2024-01-27T00:14:24;8.63;;;2.07;;
21101;SDS011;10709;49.006;12.100;2024-01-27T00:16:51;8.10;;;2.00;;
21101;SDS011;10709;49.006;12.100;2024-01-27T00:19:18;7.97;;;2.17;;
21101;SDS011;10709;49.006;12.100;2024-01-27T00:21:45;8.43;;;2.20;;
21101;SDS011;10709;49.006;12.100;2024-01-27T00:24:13;5.27;;;2.10;;
21101;SDS011;10709;49.006;12.100;2024-01-27T00:26:40;6.07;;;1.83;;
21101;SDS011;10709;49.006;12.100;2024-01-27T00:29:06;4.10;;;2.07;;
21101;SDS011;10709;49.006;12.100;2024-01-27T00:31:33;8.33;;;2.23;;
21101;SDS011;10709;49.006;12.100;2024-01-27T00:34:00;7.20;;;1.93;;
21101;SDS011;10709;49.006;12.100;2024-01-27T00:36:27;4.20;;;1.60;;
21101;SDS011;10709;49.006;12.100;2024-01-27T00:38:54;6.07;;;2.13;;
21101;SDS011;10709;49.006;12.100;2024-01-27T00:41:20;5.37;;;1.97;;
21101;SDS011;10709;49.006;12.100;2024-01-27T00:43:47;6.20;;;2.10;;
21101;SDS011;10709;49.006;12.100;2024-01-27T00:46:14;5.03;;;1.97;;
21101;SDS011;10709;49.006;12.100;2024-01-27T00:48:40;6.57;;;2.13;;
21101;SDS011;10709;49.006;12.100;2024-01-27T00:51:07;6.67;;;2.00;;
21101;SDS011;10709;49.006;12.100;2024-01-27T00:53:34;5.83;;;1.97;;
21101;SDS011;10709;49.006;12.100;2024-01-27T00:56:00;8.13;;;2.00;;
21101;SDS011;10709;49.006;12.100;2024-01-27T00:58:27;6.10;;;1.90;;
21101;SDS011;10709;49.006;12.100;2024-01-27T01:00:57;8.97;;;2.00;;
21101;SDS011;10709;49.006;12.100;2024-01-27T01:03:24;5.67;;;2.27;;
21101;SDS011;10709;49.006;12.100;2024-01-27T01:05:51;6.07;;;2.20;;
21101;SDS011;10709;49.006;12.100;2024-01-27T01:08:18;5.30;;;2.47;;
21101;SDS011;10709;49.006;12.100;2024-01-27T01:10:44;9.03;;;2.50;;
21101;SDS011;10709;49.006;12.100;2024-01-27T01:13:11;5.97;;;2.30;;
21101;SDS011;10709;49.006;12.100;2024-01-27T01:15:38;9.07;;;2.17;;
21101;SDS011;10709;49.006;12.100;2024-01-27T01:18:07;7.50;;;2.00;;
21101;SDS011;10709;49.006;12.100;2024-01-27T01:20:35;6.77;;;2.10;;
21101;SDS011;10709;49.006;12.100;2024-01-27T01:23:01;7.37;;;2.30;;
21101;SDS011;10709;49.006;12.100;2024-01-27T01:25:29;7.43;;;2.77;;
21101;SDS011;10709;49.006;12.100;2024-01-27T01:27:56;5.70;;;2.27;;
21101;SDS011;10709;49.006;12.100;2024-01-27T01:30:23;4.87;;;2.20;;
21101;SDS011;10709;49.006;12.100;2024-01-27T01:32:50;7.17;;;2.30;;
21101;SDS011;10709;49.006;12.100;2024-01-27T01:35:17;9.23;;;1.83;;
21101;SDS011;10709;49.006;12.100;2024-01-27T01:37:44;5.83;;;2.67;;
21101;SDS011;10709;49.006;12.100;2024-01-27T01:40:10;6.07;;;2.17;;
21101;SDS011;10709;49.006;12.100;2024-01-27T01:42:39;9.97;;;2.53;;
21101;SDS011;10709;49.006;12.100;2024-01-27T01:45:05;5.67;;;2.10;;
21101;SDS011;10709;49.006;12.100;2024-01-27T01:47:33;6.93;;;2.50;;
21101;SDS011;10709;49.006;12.100;2024-01-27T01:50:00;7.83;;;2.20;;
21101;SDS011;10709;49.006;12.100;2024-01-27T01:52:27;6.47;;;2.30;;
21101;SDS011;10709;49.006;12.100;2024-01-27T01:54:54;6.53;;;2.03;;
21101;SDS011;10709;49.006;12.100;2024-01-27T01:57:20;7.00;;;2.63;;
21101;SDS011;10709;49.006;12.100;2024-01-27T01:59:47;10.93;;;3.03;;
21101;SDS011;10709;49.006;12.100;2024-01-27T02:02:15;7.30;;;2.50;;
21101;SDS011;10709;49.006;12.100;2024-01-27T02:04:42;7.17;;;1.90;;
21101;SDS011;10709;49.006;12.100;2024-01-27T02:07:10;6.43;;;2.20;;
21101;SDS011;10709;49.006;12.100;2024-01-27T02:09:36;8.97;;;2.53;;
21101;SDS011;10709;49.006;12.100;2024-01-27T02:12:04;6.17;;;2.13;;
21101;SDS011;10709;49.006;12.100;2024-01-27T02:14:31;9.97;;;2.53;;
21101;SDS011;10709;49.006;12.100;2024-01-27T02:16:57;6.40;;;2.30;;
21101;SDS011;10709;49.006;12.100;2024-01-27T02:19:24;4.53;;;2.30;;
21101;SDS011;10709;49.006;12.100;2024-01-27T02:21:51;5.00;;;2.43;;
21101;SDS011;10709;49.006;12.100;2024-01-27T02:24:18;10.67;;;2.57;;
21101;SDS011;10709;49.006;12.100;2024-01-27T02:26:44;6.23;;;2.87;;
21101;SDS011;10709;49.006;12.100;2024-01-27T02:29:12;7.27;;;2.40;;
21101;SDS011;10709;49.006;12.100;2024-01-27T02:31:39;6.33;;;2.23;;
21101;SDS011;10709;49.006;12.100;2024-01-27T02:34:05;6.33;;;2.50;;
21101;SDS011;10709;49.006;12.100;2024-01-27T02:36:32;8.60;;;2.67;;
21101;SDS011;10709;49.006;12.100;2024-01-27T02:38:59;6.13;;;2.17;;
21101;SDS011;10709;49.006;12.100;2024-01-27T02:41:26;8.07;;;2.33;;
21101;SDS011;10709;49.006;12.100;2024-01-27T02:43:53;5.33;;;2.20;;
21101;SDS011;10709;49.006;12.100;2024-01-27T02:46:19;6.17;;;2.50;;
21101;SDS011;10709;49.006;12.100;2024-01-27T02:48:46;13.73;;;2.70;;
21101;SDS011;10709;49.006;12.100;2024-01-27T02:51:13;7.90;;;2.63;;
21101;SDS011;10709;49.006;12.100;2024-01-27T02:53:40;6.83;;;2.50;;
21101;SDS011;10709;49.006;12.100;2024-01-27T02:56:07;4.07;;;2.13;;
21101;SDS011;10709;49.006;12.100;2024-01-27T02:58:36;5.53;;;1.90;;
21101;SDS011;10709;49.006;12.100;2024-01-27T03:01:03;5.87;;;2.10;;
21101;SDS011;10709;49.006;12.100;2024-01-27T03:03:29;7.73;;;2.70;;
21101;SDS011;10709;49.006;12.100;2024-01-27T03:05:56;10.13;;;2.80;;
21101;SDS011;10709;49.006;12.100;2024-01-27T03:08:23;8.47;;;2.63;;
21101;SDS011;10709;49.006;12.100;2024-01-27T03:10:49;7.57;;;2.23;;
21101;SDS011;10709;49.006;12.100;2024-01-27T03:13:16;7.43;;;2.40;;
21101;SDS011;10709;49.006;12.100;2024-01-27T03:15:45;6.33;;;2.50;;
21101;SDS011;10709;49.006;12.100;2024-01-27T03:18:11;5.60;;;2.30;;
21101;SDS011;10709;49.006;12.100;2024-01-27T03:20:40;5.73;;;2.10;;
21101;SDS011;10709;49.006;12.100;2024-01-27T03:23:06;6.00;;;2.30;;
21101;SDS011;10709;49.006;12.100;2024-01-27T03:25:34;5.77;;;2.50;;
21101;SDS011;10709;49.006;12.100;2024-01-27T03:28:00;7.47;;;2.50;;
21101;SDS011;10709;49.006;12.100;2024-01-27T03:30:28;8.77;;;2.27;;
21101;SDS011;10709;49.006;12.100;2024-01-27T03:32:54;9.53;;;2.77;;
21101;SDS011;10709;49.006;12.100;2024-01-27T03:35:22;5.20;;;2.30;;
21101;SDS011;10709;49.006;12.100;2024-01-27T03:37:48;8.93;;;2.40;;
21101;SDS011;10709;49.006;12.100;2024-01-27T03:40:15;9.90;;;2.57;;
21101;SDS011;10709;49.006;12.100;2024-01-27T03:42:42;7.00;;;2.20;;
21101;SDS011;10709;49.006;12.100;2024-01-27T03:45:08;6.33;;;2.37;;
21101;SDS011;10709;49.006;12.100;2024-01-27T03:47:35;7.70;;;2.53;;
21101;SDS011;10709;49.006;12.100;2024-01-27T03:50:02;9.33;;;3.07;;
21101;SDS011;10709;49.006;12.100;2024-01-27T03:52:28;11.27;;;2.87;;
21101;SDS011;10709;49.006;12.100;2024-01-27T03:54:55;6.47;;;2.43;;
21101;SDS011;10709;49.006;12.100;2024-01-27T03:57:23;11.53;;;2.50;;
21101;SDS011;10709;49.006;12.100;2024-01-27T03:59:52;8.60;;;2.63;;
21101;SDS011;10709;49.006;12.100;2024-01-27T04:02:21;8.47;;;2.50;;
21101;SDS011;10709;49.006;12.100;2024-01-27T04:04:49;10.40;;;2.77;;
21101;SDS011;10709;49.006;12.100;2024-01-27T04:07:16;6.77;;;2.50;;
21101;SDS011;10709;49.006;12.100;2024-01-27T04:09:43;8.33;;;3.00;;
21101;SDS011;10709;49.006;12.100;2024-01-27T04:12:10;9.00;;;2.63;;
21101;SDS011;10709;49.006;12.100;2024-01-27T04:14:37;6.20;;;2.93;;
21101;SDS011;10709;49.006;12.100;2024-01-27T04:17:04;9.03;;;2.73;;
21101;SDS011;10709;49.006;12.100;2024-01-27T04:19:32;11.50;;;3.03;;
21101;SDS011;10709;49.006;12.100;2024-01-27T04:21:59;7.23;;;2.77;;
21101;SDS011;10709;49.006;12.100;2024-01-27T04:24:27;7.60;;;2.80;;
21101;SDS011;10709;49.006;12.100;2024-01-27T04:26:54;8.80;;;2.83;;
21101;SDS011;10709;49.006;12.100;2024-01-27T04:29:21;9.43;;;3.07;;
21101;SDS011;10709;49.006;12.100;2024-01-27T04:31:51;6.80;;;2.60;;
21101;SDS011;10709;49.006;12.100;2024-01-27T04:34:18;7.70;;;2.77;;
21101;SDS011;10709;49.006;12.100;2024-01-27T04:36:45;7.40;;;2.47;;
21101;SDS011;10709;49.006;12.100;2024-01-27T04:39:12;7.20;;;2.67;;
21101;SDS011;10709;49.006;12.100;2024-01-27T04:41:43;7.30;;;2.83;;
21101;SDS011;10709;49.006;12.100;2024-01-27T04:44:12;8.30;;;2.80;;
21101;SDS011;10709;49.006;12.100;2024-01-27T04:46:40;7.40;;;2.60;;
21101;SDS011;10709;49.006;12.100;2024-01-27T04:49:09;5.87;;;2.63;;
21101;SDS011;10709;49.006;12.100;2024-01-27T04:51:37;6.57;;;2.60;;
21101;SDS011;10709;49.006;12.100;2024-01-27T04:54:04;7.97;;;2.40;;
21101;SDS011;10709;49.006;12.100;2024-01-27T04:56:30;7.77;;;3.20;;
21101;SDS011;10709;49.006;12.100;2024-01-27T04:58:58;11.27;;;2.90;;
21101;SDS011;10709;49.006;12.100;2024-01-27T05:01:26;11.30;;;2.87;;
21101;SDS011;10709;49.006;12.100;2024-01-27T05:03:54;5.37;;;2.60;;
21101;SDS011;10709;49.006;12.100;2024-01-27T05:06:20;9.37;;;2.37;;
21101;SDS011;10709;49.006;12.100;2024-01-27T05:08:48;10.53;;;3.10;;
21101;SDS011;10709;49.006;12.100;2024-01-27T05:11:16;6.57;;;2.70;;
21101;SDS011;10709;49.006;12.100;2024-01-27T05:13:51;8.37;;;2.60;;
21101;SDS011;10709;49.006;12.100;2024-01-27T05:16:20;7.30;;;2.63;;
21101;SDS011;10709;49.006;12.100;2024-01-27T05:18:46;9.67;;;2.60;;
21101;SDS011;10709;49.006;12.100;2024-01-27T05:21:13;5.27;;;2.40;;
21101;SDS011;10709;49.006;12.100;2024-01-27T05:23:39;7.40;;;2.73;;
21101;SDS011;10709;49.006;12.100;2024-01-27T05:26:06;4.30;;;2.13;;
21101;SDS011;10709;49.006;12.100;2024-01-27T05:28:32;8.43;;;3.00;;
21101;SDS011;10709;49.006;12.100;2024-01-27T05:31:00;8.97;;;2.60;;
21101;SDS011;10709;49.006;12.100;2024-01-27T05:33:29;7.97;;;2.60;;
21101;SDS011;10709;49.006;12.100;2024-01-27T05:35:56;8.20;;;2.70;;
21101;SDS011;10709;49.006;12.100;2024-01-27T05:38:22;6.67;;;2.67;;
21101;SDS011;10709;49.006;12.100;2024-01-27T05:40:49;9.73;;;2.57;;
21101;SDS011;10709;49.006;12.100;2024-01-27T05:43:17;7.33;;;3.00;;
21101;SDS011;10709;49.006;12.100;2024-01-27T05:45:46;7.87;;;2.57;;
21101;SDS011;10709;49.006;12.100;2024-01-27T05:48:12;5.87;;;2.60;;
21101;SDS011;10709;49.006;12.100;2024-01-27T05:50:40;8.33;;;2.90;;
21101;SDS011;10709;49.006;12.100;2024-01-27T05:53:10;4.97;;;2.63;;
21101;SDS011;10709;49.006;12.100;2024-01-27T05:55:37;7.20;;;2.80;;
21101;SDS011;10709;49.006;12.100;2024-01-27T05:58:04;8.00;;;2.73;;
21101;SDS011;10709;49.006;12.100;2024-01-27T06:00:30;7.93;;;3.00;;
21101;SDS011;10709;49.006;12.100;2024-01-27T06:02:57;5.77;;;2.47;;
21101;SDS011;10709;49.006;12.100;2024-01-27T06:05:24;9.57;;;3.10;;
21101;SDS011;10709;49.006;12.100;2024-01-27T06:07:51;6.57;;;2.90;;
21101;SDS011;10709;49.006;12.100;2024-01-27T06:10:17;7.23;;;2.93;;
21101;SDS011;10709;49.006;12.100;2024-01-27T06:12:44;6.57;;;3.10;;
21101;SDS011;10709;49.006;12.100;2024-01-27T06:15:11;9.43;;;3.07;;
21101;SDS011;10709;49.006;12.100;2024-01-27T06:17:38;8.87;;;3.10;;
21101;SDS011;10709;49.006;12.100;2024-01-27T06:20:04;11.47;;;3.53;;
21101;SDS011;10709;49.006;12.100;2024-01-27T06:22:32;8.83;;;3.37;;
21101;SDS011;10709;49.006;12.100;2024-01-27T06:24:59;6.93;;;2.80;;
21101;SDS011;10709;49.006;12.100;2024-01-27T06:27:26;8.50;;;3.10;;
21101;SDS011;10709;49.006;12.100;2024-01-27T06:29:53;11.03;;;3.70;;
21101;SDS011;10709;49.006;12.100;2024-01-27T06:32:20;8.57;;;3.27;;
21101;SDS011;10709;49.006;12.100;2024-01-27T06:34:46;9.93;;;3.97;;
21101;SDS011;10709;49.006;12.100;2024-01-27T06:37:13;9.53;;;3.23;;
21101;SDS011;10709;49.006;12.100;2024-01-27T06:39:39;9.80;;;3.33;;
21101;SDS011;10709;49.006;12.100;2024-01-27T06:42:06;10.30;;;3.10;;
21101;SDS011;10709;49.006;12.100;2024-01-27T06:44:32;11.23;;;2.90;;
21101;SDS011;10709;49.006;12.100;2024-01-27T06:46:59;10.93;;;3.50;;
21101;SDS011;10709;49.006;12.100;2024-01-27T06:49:26;7.27;;;2.80;;
21101;SDS011;10709;49.006;12.100;2024-01-27T06:51:57;5.00;;;2.90;;
21101;SDS011;10709;49.006;12.100;2024-01-27T06:54:24;9.30;;;3.20;;
21101;SDS011;10709;49.006;12.100;2024-01-27T06:56:50;6.80;;;2.97;;
21101;SDS011;10709;49.006;12.100;2024-01-27T06:59:17;9.07;;;3.60;;
21101;SDS011;10709;49.006;12.100;2024-01-27T07:01:45;10.23;;;3.63;;
21101;SDS011;10709;49.006;12.100;2024-01-27T07:04:15;8.47;;;3.70;;
21101;SDS011;10709;49.006;12.100;2024-01-27T07:06:42;8.80;;;3.40;;
21101;SDS011;10709;49.006;12.100;2024-01-27T07:09:09;10.87;;;4.30;;
21101;SDS011;10709;49.006;12.100;2024-01-27T07:11:36;9.13;;;3.77;;
21101;SDS011;10709;49.006;12.100;2024-01-27T07:14:03;10.20;;;3.87;;
21101;SDS011;10709;49.006;12.100;2024-01-27T07:16:30;9.77;;;3.43;;
21101;SDS011;10709;49.006;12.100;2024-01-27T07:18:58;9.83;;;3.47;;
21101;SDS011;10709;49.006;12.100;2024-01-27T07:21:25;11.47;;;3.53;;
21101;SDS011;10709;49.006;12.100;2024-01-27T07:23:53;12.33;;;3.20;;
21101;SDS011;10709;49.006;12.100;2024-01-27T07:26:20;6.87;;;3.20;;
21101;SDS011;10709;49.006;12.100;2024-01-27T07:28:46;6.37;;;3.03;;
21101;SDS011;10709;49.006;12.100;2024-01-27T07:31:14;11.00;;;3.70;;
21101;SDS011;10709;49.006;12.100;2024-01-27T07:33:43;11.53;;;3.77;;
21101;SDS011;10709;49.006;12.100;2024-01-27T07:36:10;11.53;;;3.87;;
21101;SDS011;10709;49.006;12.100;2024-01-27T07:38:38;8.03;;;3.37;;
21101;SDS011;10709;49.006;12.100;2024-01-27T07:41:04;9.57;;;3.60;;
21101;SDS011;10709;49.006;12.100;2024-01-27T07:43:32;10.47;;;3.43;;
21101;SDS011;10709;49.006;12.100;2024-01-27T07:45:59;8.60;;;3.47;;
21101;SDS011;10709;49.006;12.100;2024-01-27T07:48:25;10.40;;;3.73;;
21101;SDS011;10709;49.006;12.100;2024-01-27T07:50:55;15.20;;;4.13;;
21101;SDS011;10709;49.006;12.100;2024-01-27T07:53:23;10.47;;;3.70;;
21101;SDS011;10709;49.006;12.100;2024-01-27T07:55:51;14.20;;;3.77;;
21101;SDS011;10709;49.006;12.100;2024-01-27T07:58:20;7.77;;;4.03;;
21101;SDS011;10709;49.006;12.100;2024-01-27T08:00:47;7.40;;;3.67;;
21101;SDS011;10709;49.006;12.100;2024-01-27T08:03:13;8.90;;;3.90;;
21101;SDS011;10709;49.006;12.100;2024-01-27T08:05:40;14.40;;;4.23;;
21101;SDS011;10709;49.006;12.100;2024-01-27T08:08:07;8.60;;;3.93;;
21101;SDS011;10709;49.006;12.100;2024-01-27T08:10:33;9.90;;;3.93;;
21101;SDS011;10709;49.006;12.100;2024-01-27T08:13:01;11.50;;;4.07;;
21101;SDS011;10709;49.006;12.100;2024-01-27T08:15:28;12.00;;;4.73;;
21101;SDS011;10709;49.006;12.100;2024-01-27T08:17:55;13.13;;;4.37;;
21101;SDS011;10709;49.006;12.100;2024-01-27T08:20:22;14.70;;;4.33;;
21101;SDS011;10709;49.006;12.100;2024-01-27T08:22:50;10.17;;;4.30;;
21101;SDS011;10709;49.006;12.100;2024-01-27T08:25:20;10.43;;;4.00;;
21101;SDS011;10709;49.006;12.100;2024-01-27T08:27:46;11.20;;;4.47;;
21101;SDS011;10709;49.006;12.100;2024-01-27T08:30:13;10.73;;;4.20;;
21101;SDS011;10709;49.006;12.100;2024-01-27T08:32:41;9.43;;;4.10;;
21101;SDS011;10709;49.006;12.100;2024-01-27T08:35:08;10.80;;;4.60;;
21101;SDS011;10709;49.006;12.100;2024-01-27T08:37:37;9.07;;;3.60;;
21101;SDS011;10709;49.006;12.100;2024-01-27T08:40:05;13.83;;;4.30;;
21101;SDS011;10709;49.006;12.100;2024-01-27T08:42:35;12.10;;;3.63;;
21101;SDS011;10709;49.006;12.100;2024-01-27T08:45:02;11.47;;;4.13;;
21101;SDS011;10709;49.006;12.100;2024-01-27T08:47:29;10.17;;;4.13;;
21101;SDS011;10709;49.006;12.100;2024-01-27T08:49:56;10.40;;;3.63;;
21101;SDS011;10709;49.006;12.100;2024-01-27T08:52:24;8.90;;;3.63;;
21101;SDS011;10709;49.006;12.100;2024-01-27T08:54:51;13.83;;;4.23;;
21101;SDS011;10709;49.006;12.100;2024-01-27T08:57:18;10.73;;;4.03;;
21101;SDS011;10709;49.006;12.100;2024-01-27T08:59:45;14.50;;;4.60;;
21101;SDS011;10709;49.006;12.100;2024-01-27T09:02:11;12.17;;;3.70;;
21101;SDS011;10709;49.006;12.100;2024-01-27T09:04:40;9.90;;;3.90;;
21101;SDS011;10709;49.006;12.100;2024-01-27T09:07:09;11.07;;;3.60;;
21101;SDS011;10709;49.006;12.100;2024-01-27T09:09:36;16.87;;;4.43;;
21101;SDS011;10709;49.006;12.100;2024-01-27T09:12:07;11.53;;;4.00;;
21101;SDS011;10709;49.006;12.100;2024-01-27T09:14:34;12.87;;;4.50;;
21101;SDS011;10709;49.006;12.100;2024-01-27T09:17:01;11.97;;;4.07;;
21101;SDS011;10709;49.006;12.100;2024-01-27T09:19:28;11.60;;;3.83;;
21101;SDS011;10709;49.006;12.100;2024-01-27T09:21:55;12.10;;;4.03;;
21101;SDS011;10709;49.006;12.100;2024-01-27T09:24:22;12.07;;;4.17;;
21101;SDS011;10709;49.006;12.100;2024-01-27T09:26:50;14.83;;;4.40;;
21101;SDS011;10709;49.006;12.100;2024-01-27T09:29:17;11.43;;;3.90;;
21101;SDS011;10709;49.006;12.100;2024-01-27T09:31:45;11.70;;;3.83;;
21101;SDS011;10709;49.006;12.100;2024-01-27T09:34:12;9.60;;;3.97;;
21101;SDS011;10709;49.006;12.100;2024-01-27T09:36:41;11.60;;;3.67;;
21101;SDS011;10709;49.006;12.100;2024-01-27T09:39:08;14.27;;;4.20;;
21101;SDS011;10709;49.006;12.100;2024-01-27T09:41:35;10.13;;;3.83;;
21101;SDS011;10709;49.006;12.100;2024-01-27T09:44:01;11.40;;;3.83;;
21101;SDS011;10709;49.006;12.100;2024-01-27T09:46:29;11.67;;;3.90;;
21101;SDS011;10709;49.006;12.100;2024-01-27T09:48:56;15.83;;;4.00;;
21101;SDS011;10709;49.006;12.100;2024-01-27T09:51:24;13.87;;;4.00;;
21101;SDS011;10709;49.006;12.100;2024-01-27T09:53:54;11.77;;;3.80;;
21101;SDS011;10709;49.006;12.100;2024-01-27T09:56:20;13.83;;;4.17;;
21101;SDS011;10709;49.006;12.100;2024-01-27T09:58:49;10.73;;;3.83;;
21101;SDS011;10709;49.006;12.100;2024-01-27T10:01:16;12.27;;;4.23;;
21101;SDS011;10709;49.006;12.100;2024-01-27T10:03:48;12.00;;;3.90;;
21101;SDS011;10709;49.006;12.100;2024-01-27T10:06:15;11.73;;;3.70;;
21101;SDS011;10709;49.006;12.100;2024-01-27T10:08:47;10.37;;;3.33;;
21101;SDS011;10709;49.006;12.100;2024-01-27T10:11:20;13.97;;;3.23;;
21101;SDS011;10709;49.006;12.100;2024-01-27T10:13:55;14.93;;;3.27;;
21101;SDS011;10709;49.006;12.100;2024-01-27T10:16:25;9.40;;;3.37;;
21101;SDS011;10709;49.006;12.100;2024-01-27T10:18:59;12.60;;;3.47;;
21101;SDS011;10709;49.006;12.100;2024-01-27T10:21:27;11.93;;;3.60;;
21101;SDS011;10709;49.006;12.100;2024-01-27T10:23:54;15.27;;;3.50;;
21101;SDS011;10709;49.006;12.100;2024-01-27T10:26:20;11.80;;;3.40;;
21101;SDS011;10709;49.006;12.100;2024-01-27T10:28:52;11.73;;;2.97;;
21101;SDS011;10709;49.006;12.100;2024-01-27T10:31:26;11.97;;;3.13;;
21101;SDS011;10709;49.006;12.100;2024-01-27T10:33:56;13.83;;;3.17;;
21101;SDS011;10709;49.006;12.100;2024-01-27T10:36:24;13.90;;;3.40;;
21101;SDS011;10709;49.006;12.100;2024-01-27T10:38:52;12.63;;;3.43;;
21101;SDS011;10709;49.006;12.100;2024-01-27T10:41:22;10.60;;;2.80;;
21101;SDS011;10709;49.006;12.100;2024-01-27T10:43:51;11.40;;;2.97;;
21101;SDS011;10709;49.006;12.100;2024-01-27T10:46:19;10.40;;;2.67;;
21101;SDS011;10709;49.006;12.100;2024-01-27T10:48:52;12.43;;;2.73;;
21101;SDS011;10709;49.006;12.100;2024-01-27T10:51:28;10.93;;;2.70;;
21101;SDS011;10709;49.006;12.100;2024-01-27T10:54:02;10.80;;;2.60;;
21101;SDS011;10709;49.006;12.100;2024-01-27T10:56:31;7.73;;;2.60;;
21101;SDS011;10709;49.006;12.100;2024-01-27T10:59:00;11.33;;;3.17;;
21101;SDS011;10709;49.006;12.100;2024-01-27T11:01:29;8.43;;;2.53;;
21101;SDS011;10709;49.006;12.100;2024-01-27T11:03:58;9.17;;;2.83;;
21101;SDS011;10709;49.006;12.100;2024-01-27T11:06:25;8.63;;;2.70;;
21101;SDS011;10709;49.006;12.100;2024-01-27T11:08:55;10.87;;;3.00;;
21101;SDS011;10709;49.006;12.100;2024-01-27T11:11:23;10.23;;;2.50;;
21101;SDS011;10709;49.006;12.100;2024-01-27T11:13:49;10.07;;;2.63;;
21101;SDS011;10709;49.006;12.100;2024-01-27T11:16:18;13.93;;;3.20;;
21101;SDS011;10709;49.006;12.100;2024-01-27T11:18:45;9.03;;;2.73;;
21101;SDS011;10709;49.006;12.100;2024-01-27T11:21:14;11.17;;;3.00;;
21101;SDS011;10709;49.006;12.100;2024-01-27T11:23:42;10.60;;;2.63;;
21101;SDS011;10709;49.006;12.100;2024-01-27T11:26:16;9.60;;;2.77;;
21101;SDS011;10709;49.006;12.100;2024-01-27T11:28:45;14.03;;;3.47;;
21101;SDS011;10709;49.006;12.100;2024-01-27T11:31:12;14.40;;;3.00;;
21101;SDS011;10709;49.006;12.100;2024-01-27T11:33:42;11.57;;;2.90;;
21101;SDS011;10709;49.006;12.100;2024-01-27T11:36:18;9.27;;;3.00;;
21101;SDS011;10709;49.006;12.100;2024-01-27T11:38:47;10.53;;;2.73;;
21101;SDS011;10709;49.006;12.100;2024-01-27T11:41:23;12.43;;;3.17;;
21101;SDS011;10709;49.006;12.100;2024-01-27T11:43:51;8.27;;;2.73;;
21101;SDS011;10709;49.006;12.100;2024-01-27T11:46:18;7.37;;;2.40;;
21101;SDS011;10709;49.006;12.100;2024-01-27T11:48:46;11.57;;;2.83;;
21101;SDS011;10709;49.006;12.100;2024-01-27T11:51:13;10.30;;;2.30;;
21101;SDS011;10709;49.006;12.100;2024-01-27T11:53:40;12.10;;;2.60;;
21101;SDS011;10709;49.006;12.100;2024-01-27T11:56:10;18.07;;;5.53;;
21101;SDS011;10709;49.006;12.100;2024-01-27T11:58:37;11.97;;;3.10;;
21101;SDS011;10709;49.006;12.100;2024-01-27T12:01:04;9.13;;;2.20;;
21101;SDS011;10709;49.006;12.100;2024-01-27T12:03:30;10.13;;;2.87;;
21101;SDS011;10709;49.006;12.100;2024-01-27T12:05:58;12.83;;;2.80;;
21101;SDS011;10709;49.006;12.100;2024-01-27T12:08:25;13.03;;;2.83;;
21101;SDS011;10709;49.006;12.100;2024-01-27T12:10:52;11.07;;;2.23;;
21101;SDS011;10709;49.006;12.100;2024-01-27T12:13:18;10.40;;;2.80;;
21101;SDS011;10709;49.006;12.100;2024-01-27T12:15:45;7.37;;;2.00;;
21101;SDS011;10709;49.006;12.100;2024-01-27T12:18:12;8.67;;;2.43;;
21101;SDS011;10709;49.006;12.100;2024-01-27T12:20:39;16.70;;;3.83;;
21101;SDS011;10709;49.006;12.100;2024-01-27T12:23:06;19.77;;;7.10;;
21101;SDS011;10709;49.006;12.100;2024-01-27T12:25:33;10.63;;;3.73;;
21101;SDS011;10709;49.006;12.100;2024-01-27T12:28:04;9.90;;;3.20;;
21101;SDS011;10709;49.006;12.100;2024-01-27T12:30:32;11.03;;;2.80;;
21101;SDS011;10709;49.006;12.100;2024-01-27T12:33:00;9.20;;;2.77;;
21101;SDS011;10709;49.006;12.100;2024-01-27T12:35:28;5.90;;;2.20;;
21101;SDS011;10709;49.006;12.100;2024-01-27T12:37:59;10.27;;;2.53;;
21101;SDS011;10709;49.006;12.100;2024-01-27T12:40:26;10.60;;;2.70;;
21101;SDS011;10709;49.006;12.100;2024-01-27T12:42:52;11.90;;;2.77;;
21101;SDS011;10709;49.006;12.100;2024-01-27T12:45:20;10.03;;;2.17;;
21101;SDS011;10709;49.006;12.100;2024-01-27T12:47:48;8.83;;;2.03;;
21101;SDS011;10709;49.006;12.100;2024-01-27T12:50:16;10.03;;;2.83;;
21101;SDS011;10709;49.006;12.100;2024-01-27T12:52:43;11.13;;;2.60;;
21101;SDS011;10709;49.006;12.100;2024-01-27T12:55:10;8.70;;;2.80;;
21101;SDS011;10709;49.006;12.100;2024-01-27T12:57:39;8.33;;;2.60;;
21101;SDS011;10709;49.006;12.100;2024-01-27T13:00:06;10.93;;;2.37;;
21101;SDS011;10709;49.006;12.100;2024-01-27T13:02:36;9.27;;;2.57;;
21101;SDS011;10709;49.006;12.100;2024-01-27T13:05:03;9.27;;;2.50;;
21101;SDS011;10709;49.006;12.100;2024-01-27T13:07:30;7.30;;;2.33;;
21101;SDS011;10709;49.006;12.100;2024-01-27T13:09:57;11.33;;;2.40;;
21101;SDS011;10709;49.006;12.100;2024-01-27T13:12:23;12.77;;;2.70;;
21101;SDS011;10709;49.006;12.100;2024-01-27T13:14:51;12.57;;;2.97;;
21101;SDS011;10709;49.006;12.100;2024-01-27T13:17:20;12.17;;;2.87;;
21101;SDS011;10709;49.006;12.100;2024-01-27T13:19:46;8.90;;;2.30;;
21101;SDS011;10709;49.006;12.100;2024-01-27T13:22:13;8.93;;;3.03;;
21101;SDS011;10709;49.006;12.100;2024-01-27T13:24:39;8.23;;;2.50;;
21101;SDS011;10709;49.006;12.100;2024-01-27T13:27:07;7.80;;;1.97;;
21101;SDS011;10709;49.006;12.100;2024-01-27T13:29:34;8.07;;;2.60;;
21101;SDS011;10709;49.006;12.100;2024-01-27T13:32:01;8.70;;;2.53;;
21101;SDS011;10709;49.006;12.100;2024-01-27T13:34:29;8.10;;;2.10;;
21101;SDS011;10709;49.006;12.100;2024-01-27T13:36:57;13.30;;;2.70;;
21101;SDS011;10709;49.006;12.100;2024-01-27T13:39:27;11.63;;;2.00;;
21101;SDS011;10709;49.006;12.100;2024-01-27T13:41:53;6.63;;;2.03;;
21101;SDS011;10709;49.006;12.100;2024-01-27T13:44:22;7.03;;;2.73;;
21101;SDS011;10709;49.006;12.100;2024-01-27T13:46:48;9.80;;;2.40;;
21101;SDS011;10709;49.006;12.100;2024-01-27T13:49:15;8.80;;;2.37;;
21101;SDS011;10709;49.006;12.100;2024-01-27T13:51:41;9.10;;;2.50;;
21101;SDS011;10709;49.006;12.100;2024-01-27T13:54:08;11.37;;;2.30;;
21101;SDS011;10709;49.006;12.100;2024-01-27T13:56:36;7.50;;;2.33;;
21101;SDS011;10709;49.006;12.100;2024-01-27T13:59:05;9.37;;;2.57;;
21101;SDS011;10709;49.006;12.100;2024-01-27T14:01:34;8.47;;;2.47;;
21101;SDS011;10709;49.006;12.100;2024-01-27T14:04:00;10.77;;;2.57;;
21101;SDS011;10709;49.006;12.100;2024-01-27T14:06:27;10.57;;;2.70;;
21101;SDS011;10709;49.006;12.100;2024-01-27T14:08:54;7.07;;;2.23;;
21101;SDS011;10709;49.006;12.100;2024-01-27T14:11:21;8.10;;;2.27;;
21101;SDS011;10709;49.006;12.100;2024-01-27T14:13:48;6.87;;;2.17;;
21101;SDS011;10709;49.006;12.100;2024-01-27T14:16:15;10.53;;;2.60;;
21101;SDS011;10709;49.006;12.100;2024-01-27T14:18:45;10.50;;;2.40;;
21101;SDS011;10709;49.006;12.100;2024-01-27T14:21:12;7.20;;;2.20;;
21101;SDS011;10709;49.006;12.100;2024-01-27T14:23:39;8.30;;;2.47;;
21101;SDS011;10709;49.006;12.100;2024-01-27T14:26:05;11.13;;;2.60;;
21101;SDS011;10709;49.006;12.100;2024-01-27T14:28:34;10.67;;;2.80;;
21101;SDS011;10709;49.006;12.100;2024-01-27T14:31:01;11.03;;;2.20;;